• Join FlightAware (Why Join?)
  • Login
  • US Flag 
08:08PM EDT


 

Airport Tracker/Info


-or-


 

Live Flight TrackerFlight Track Log ✈ CTL369 ✈ 18-Jun-2013 ✈ KBKL - KHAO

Flight Track Log - Related Links

Times and Time Zones

All times are in EDT time to prevent confusion due to time zone crossing. See the CTL369 flight status page for this flight to view local times or setup timezone preferences in your user account.

Time Position Orientation Groundspeed Altitude Reporting Facility
EDT Latitude Longitude Course Direction KTS MPH feet Rate Location/Type
08:58PM 41.5253 -81.6731 228° Southwest 88 101 1,300  Level Cleveland Center
08:59PM 41.5442 -81.6567 33° Northeast 95 109 2,600 960 Climbing Cleveland Center
09:00PM 41.5175 -81.6258 139° Southeast 160 184 3,200 840 Climbing Cleveland Center
09:02PM 41.4827 -81.6899 234° Southwest  Level FlightAware Approximate
09:02PM 41.4492 -81.5694 234° Southwest 145 167 5,200  Level Cleveland Center
09:03PM 41.4239 -81.6022 224° Southwest 136 157 6,100 360 Climbing Cleveland Center
09:04PM 41.3439 -81.8985 228° Southwest  Level FlightAware Approximate
09:04PM 41.3878 -81.6569 229° Southwest 176 203 6,000  Level Cleveland Center
09:05PM 41.3561 -81.7089 231° Southwest 179 206 6,100  Climbing Cleveland Center
09:06PM 41.3222 -81.7608 229° Southwest 177 204 6,000  Descending Cleveland Center
09:07PM 41.2864 -81.8072 224° Southwest 178 205 6,100  Climbing Cleveland Center
09:08PM 41.2586 -81.8619 236° Southwest 177 204 6,000 -60 Descending Cleveland Center
09:10PM 41.2470 -81.9234 256° West  Level FlightAware Approximate
09:17PM 41.0527 -82.2023 226° Southwest  Level Estimated
09:18PM 41.0449 -82.2554 259° West  Level FlightAware Approximate
09:19PM 41.0168 -82.2948 225° Southwest  Level Estimated
09:19PM 40.9133 -82.3831 227° Southwest 172 198 6,000  Level Indianapolis Center
09:20PM 40.9890 -82.3345 227° Southwest  Level FlightAware Approximate
09:20PM 40.8758 -82.4394 229° Southwest 173 199 6,100  Level Indianapolis Center
09:21PM 40.9611 -82.3741 227° Southwest  Level FlightAware Approximate
09:21PM 40.8433 -82.4856 227° Southwest 170 196 6,000  Level Indianapolis Center
09:22PM 40.9333 -82.4137 227° Southwest  Level FlightAware Approximate
09:22PM 40.8111 -82.5342 229° Southwest 174 200 6,000  Level Indianapolis Center
09:23PM 40.9055 -82.4533 227° Southwest  Level FlightAware Approximate
09:23PM 40.7781 -82.5817 227° Southwest 174 200 5,900  Level Indianapolis Center
09:24PM 40.8776 -82.4929 227° Southwest  Level FlightAware Approximate
09:24PM 40.7450 -82.6283 227° Southwest 173 199 5,900  Level Indianapolis Center
09:25PM 40.8497 -82.5324 227° Southwest  Level FlightAware Approximate
09:25PM 40.7122 -82.6753 227° Southwest 174 200 5,900  Level Indianapolis Center
09:27PM 40.6797 -82.7239 229° Southwest 175 201 5,900  Level Indianapolis Center
09:28PM 40.6464 -82.7700 226° Southwest 174 200 5,900  Level Indianapolis Center
09:29PM 40.6133 -82.8189 228° Southwest 176 203 5,900  Level Indianapolis Center
09:30PM 40.5808 -82.8658 228° Southwest 173 199 5,900  Level Indianapolis Center
09:31PM 40.5469 -82.9128 226° Southwest 175 201 5,900  Level Indianapolis Center
09:32PM 40.5100 -82.9650 227° Southwest 174 200 6,000  Climbing Indianapolis Center
09:33PM 40.4778 -83.0117 228° Southwest 172 198 6,000 -60 Level Indianapolis Center
09:34PM 40.4447 -83.0586 227° Southwest 173 199 5,900  Descending Indianapolis Center
09:35PM 40.4117 -83.1106 230° Southwest 172 198 6,000  Climbing Indianapolis Center
09:36PM 40.3819 -83.1558 229° Southwest 173 199 6,000 -60 Level Indianapolis Center
09:37PM 40.3444 -83.2064 226° Southwest 175 201 5,900 -60 Descending Indianapolis Center
09:38PM 40.3119 -83.2519 227° Southwest 175 201 5,900  Level Indianapolis Center
09:39PM 40.2742 -83.3017 225° Southwest 174 200 6,000  Climbing Indianapolis Center
09:40PM 40.2381 -83.3494 225° Southwest 175 201 5,900 -60 Descending Indianapolis Center
09:41PM 40.2078 -83.3897 225° Southwest 174 200 5,900  Level Indianapolis Center
09:42PM 40.1731 -83.4372 226° Southwest 175 201 6,000  Climbing Indianapolis Center
09:43PM 40.1339 -83.4869 224° Southwest 175 201 5,900  Descending Indianapolis Center
09:44PM 40.1031 -83.5317 228° Southwest 175 201 6,000  Climbing Indianapolis Center
09:45PM 40.0703 -83.5778 227° Southwest 174 200 6,000 -60 Level Indianapolis Center
09:46PM 40.0358 -83.6275 228° Southwest 171 197 5,900 -60 Descending Indianapolis Center
09:47PM 40.0031 -83.6725 226° Southwest 174 200 5,900  Level Indianapolis Center
09:48PM 39.9703 -83.7175 226° Southwest 173 199 6,000  Climbing Indianapolis Center
09:49PM 39.9356 -83.7619 224° Southwest 171 197 6,000 -60 Level Indianapolis Center
09:50PM 39.9028 -83.8097 228° Southwest 174 200 5,900 -60 Descending Indianapolis Center
09:51PM 39.8703 -83.8517 225° Southwest 171 197 5,900  Level Indianapolis Center
09:52PM 39.8331 -83.9014 226° Southwest 171 197 6,000  Climbing Indianapolis Center
09:53PM 39.8053 -83.9358 224° Southwest 168 193 5,900  Descending Indianapolis Center
09:54PM 39.7658 -83.9875 225° Southwest 169 194 6,000  Climbing Indianapolis Center
09:55PM 39.7336 -84.0325 227° Southwest 168 193 5,900 -300 Descending Indianapolis Center
09:56PM 39.6992 -84.0808 227° Southwest 174 200 5,400 -540 Descending Indianapolis Center
09:57PM 39.6622 -84.1317 227° Southwest 187 215 4,900 -480 Descending Indianapolis Center
09:58PM 39.6258 -84.1792 225° Southwest 186 214 4,500 -420 Descending Indianapolis Center
09:59PM 39.5869 -84.2303 225° Southwest 191 220 4,100 -240 Descending Indianapolis Center
10:00PM 39.5494 -84.2800 226° Southwest 193 222 4,100 -240 Level Indianapolis Center
10:01PM 39.5006 -84.3242 215° Southwest 186 214 3,700 -540 Descending Indianapolis Center
10:02PM 39.4483 -84.3514 202° Southwest 192 221 3,100 -480 Descending Indianapolis Center
10:03PM 39.4047 -84.3764 204° Southwest 194 223 2,800 -300 Descending Indianapolis Center
10:05PM 39.3903 -84.4372 253° West  Level FlightAware Approximate
10:12PM 39.3500 -84.5167 229° Southwest  Level FlightAware Approximate
10:13PM 39.3638 -84.5219 229° Southwest  Level Estimated
10:14PM 39.3638 -84.5219 229° Southwest  Level Estimated
10:15PM 39.3638 -84.5219 229° Southwest  Level Estimated
10:16PM 39.3638 -84.5219 229° Southwest  Level Estimated